Latest Coastal Weather Observations for McCluer Island

IDD60701

Issued at 7:01 am CST Saturday 7 March 2015 (issued every 10 minutes, with the page automatically refreshed every 10 minutes)

About coastal observations | Map of coastal stations | Coastal observations for NT | Marine services | Other Formats
Station Details ID: 014274 Name: MCCLUER ISLAND Lat: -11.05 Lon: 132.98 Height: 1.4 m
Data from the previous 72 hours. | See also: Recent months at McCluer Island
Date/Time
CST
Temp

°C
Wind Pressure Rain
since 9am
mm
Weather Cloud Vis
km
Sea
Height
m
Swell
Dir
 
Speed
knots
Gust
knots
hPa Trend Height
m
Period
s
Dir
07/07:00am 28.7 WNW 12 14 1006.7 - 0.0 - - - - - - -
07/06:30am 28.7 WNW 12 14 1006.6 - 0.0 - - - - - - -
07/06:00am 28.7 W 11 13 1006.7 - 0.0 - - - - - - -
07/05:30am 28.6 WNW 13 14 1006.5 - 0.0 - - - - - - -
07/05:00am 28.6 W 13 15 1006.2 - 0.0 - - - - - - -
07/04:30am 28.5 WNW 13 15 1005.8 - 0.0 - - - - - - -
07/04:00am 28.6 WNW 13 15 1005.7 - 0.0 - - - - - - -
07/03:30am 28.7 WNW 14 16 1005.6 - 0.0 - - - - - - -
07/03:00am 28.7 WNW 13 16 1005.6 - 0.0 - - - - - - -
07/02:30am 28.7 WNW 14 16 1006.0 - 0.0 - - - - - - -
07/02:00am 28.6 WNW 14 15 1006.6 - 0.0 - - - - - - -
07/01:30am 28.6 WNW 13 15 1006.9 - 0.0 - - - - - - -
07/01:00am 28.8 W 13 15 1007.2 - 0.0 - - - - - - -
07/12:30am 28.7 WNW 12 14 1007.6 - 0.0 - - - - - - -
 
Date/Time
CST
Temp

°C
Wind Pressure Rain
since 9am
mm
Weather Cloud Vis
km
Sea
Height
m
Swell
Dir
 
Speed
knots
Gust
knots
hPa Trend Height
m
Period
s
Dir
06/11:30pm 28.7 WNW 11 13 1007.8 - 0.0 - - - - - - -
06/11:00pm 28.8 WNW 11 13 1007.6 - 0.0 - - - - - - -
06/10:30pm 29.0 WNW 11 13 1007.8 - 0.0 - - - - - - -
06/10:00pm 29.1 WNW 13 15 1007.6 - 0.0 - - - - - - -
06/09:30pm 29.0 WNW 13 15 1007.1 - 0.0 - - - - - - -
06/09:00pm 29.0 WNW 12 14 1007.1 - 0.0 - - - - - - -
06/08:30pm 29.1 WNW 14 15 1006.8 - 0.0 - - - - - - -
06/08:00pm 29.0 WNW 13 15 1006.6 - 0.0 - - - - - - -
06/07:30pm 29.1 WNW 13 15 1006.3 - 0.0 - - - - - - -
06/07:00pm 29.2 WNW 13 14 1005.7 - 0.0 - - - - - - -
06/06:30pm 29.3 WNW 13 15 1005.0 - 0.0 - - - - - - -
06/06:00pm 29.8 WNW 12 13 1004.8 - 0.0 - - - - - - -
06/05:30pm 30.3 NW 10 13 1004.7 - 0.0 - - - - - - -
06/05:00pm 30.9 NW 10 11 1004.4 - 0.0 - - - - - - -
06/04:30pm 30.7 NW 9 11 1004.6 - 0.0 - - - - - - -
06/04:00pm 31.0 NW 9 10 1004.8 - 0.0 - - - - - - -
06/03:30pm 30.9 NW 11 13 1005.2 - 0.0 - - - - - - -
06/03:00pm 30.9 NW 12 14 1005.7 - 0.0 - - - - - - -
06/02:30pm 31.2 WNW 12 14 1005.8 - 0.0 - - - - - - -
06/02:00pm 31.7 WNW 10 12 1006.2 - 0.0 - - - - - - -
06/01:30pm 31.3 WNW 11 11 1006.5 - 0.0 - - - - - - -
06/01:00pm 31.2 W 9 11 1006.8 - 0.0 - - - - - - -
06/12:30pm 31.3 WNW 10 12 1007.0 - 0.0 - - - - - - -
06/12:00pm 31.4 WNW 9 11 1007.5 - 0.0 - - - - - - -
06/11:30am 31.3 WNW 10 11 1007.6 - 0.0 - - - - - - -
06/11:00am 30.8 W 7 9 1007.7 - 0.0 - - - - - - -
06/10:30am 30.4 W 8 9 1008.0 - 0.0 - - - - - - -
06/10:00am 30.1 WSW 9 11 1008.0 - 0.0 - - - - - - -
06/09:30am 29.5 WSW 11 12 1008.0 - 0.0 - - - - - - -
06/09:00am 29.2 WSW 10 12 1007.9 - 0.0 - - - - - - -
06/08:30am 28.9 WSW 10 12 1007.7 - 0.0 - - - - - - -
06/08:00am 28.8 W 10 12 1007.2 - 0.0 - - - - - - -
06/07:30am 28.5 W 10 13 1006.9 - 0.0 - - - - - - -
06/07:00am 28.5 W 10 11 1006.7 - 0.0 - - - - - - -
06/06:30am 28.4 W 10 11 1006.6 - 0.0 - - - - - - -
06/06:00am 28.4 WNW 11 12 1006.4 - 0.0 - - - - - - -
06/05:30am 28.2 W 7 9 1006.5 - 0.0 - - - - - - -
06/05:00am 28.3 W 8 10 1006.4 - 0.0 - - - - - - -
06/04:30am 28.3 W 8 9 1006.3 - 0.0 - - - - - - -
06/04:00am 28.3 W 8 11 1006.4 - 0.0 - - - - - - -
06/03:30am 28.4 W 7 9 1006.7 - 0.0 - - - - - - -
06/03:00am 28.5 W 8 11 1007.0 - 0.0 - - - - - - -
06/02:30am 28.4 W 9 11 1007.2 - 0.0 - - - - - - -
06/02:00am 28.3 WNW 9 10 1007.5 - 0.0 - - - - - - -
06/01:30am 28.3 NW 8 10 1007.9 - 0.0 - - - - - - -
06/01:00am 28.2 NNW 9 11 1008.0 - 0.0 - - - - - - -
06/12:30am 28.5 NNW 10 11 1008.3 - 0.0 - - - - - - -
06/12:00am 28.2 NNW 8 9 1008.6 - 0.0 - - - - - - -
 
Date/Time
CST
Temp

°C
Wind Pressure Rain
since 9am
mm
Weather Cloud Vis
km
Sea
Height
m
Swell
Dir
 
Speed
knots
Gust
knots
hPa Trend Height
m
Period
s
Dir
05/11:30pm 28.3 NNW 9 10 1009.0 - 0.0 - - - - - - -
05/11:00pm 28.4 NNW 7 8 1009.1 - 0.0 - - - - - - -
05/10:30pm 28.5 NW 6 7 1009.0 - 0.0 - - - - - - -
05/10:00pm 28.6 WNW 5 6 1008.7 - 0.0 - - - - - - -
05/09:30pm 28.5 WNW 5 6 1008.4 - 0.0 - - - - - - -
05/09:00pm 28.6 W 3 4 1008.3 - 0.0 - - - - - - -
05/08:30pm 28.7 WNW 4 6 1008.2 - 0.0 - - - - - - -
05/08:00pm 28.8 NW 5 8 1007.9 - 0.0 - - - - - - -
05/07:30pm 28.9 NW 6 8 1007.5 - 0.0 - - - - - - -
05/07:00pm 28.9 NNW 8 9 1006.6 - 0.0 - - - - - - -
05/06:30pm 29.3 N 6 7 1006.2 - 0.0 - - - - - - -
05/06:00pm 29.8 NNW 4 6 1005.7 - 0.0 - - - - - - -
05/05:30pm 30.5 NNW 4 5 1005.7 - 0.0 - - - - - - -
05/05:00pm 30.2 NNW 4 6 1005.6 - 0.0 - - - - - - -
05/04:30pm 30.7 NNW 4 5 1005.7 - 0.0 - - - - - - -
05/04:00pm 30.3 N 5 6 1005.8 - 0.0 - - - - - - -
05/03:30pm 29.8 N 5 6 1006.1 - 0.0 - - - - - - -
05/03:00pm 30.6 NNW 2 4 1006.2 - 0.0 - - - - - - -
05/02:30pm 30.6 CALM 0 3 1006.4 - 0.0 - - - - - - -
05/02:00pm 30.5 W 3 4 1006.7 - 0.0 - - - - - - -
05/01:30pm 30.3 W 1 4 1007.1 - 0.0 - - - - - - -
05/01:00pm 30.5 WSW 3 5 1007.8 - 0.0 - - - - - - -
05/12:30pm 31.0 W 2 4 1008.2 - 0.0 - - - - - - -
05/12:00pm 30.5 SSW 5 6 1008.5 - 0.0 - - - - - - -
05/11:30am 30.4 SSW 5 8 1008.6 - 0.0 - - - - - - -
05/11:00am 30.9 S 7 9 1008.7 - 0.0 - - - - - - -
05/10:30am 30.7 SSW 8 10 1008.9 - 0.0 - - - - - - -
05/10:00am 30.1 SSW 8 10 1009.3 - 0.0 - - - - - - -
05/09:30am 30.1 SSW 8 10 1009.4 - 0.0 - - - - - - -
05/09:00am 29.9 SSW 7 9 1009.3 - 0.0 - - - - - - -
05/08:30am 28.3 SW 8 10 1008.9 - 0.0 - - - - - - -
05/08:00am 28.2 SW 10 12 1008.5 - 0.0 - - - - - - -
05/07:30am 28.1 SW 11 13 1008.1 - 0.0 - - - - - - -
05/07:00am 28.0 WSW 10 11 1007.7 - 0.0 - - - - - - -
05/06:30am 27.9 WSW 11 13 1007.6 - 0.0 - - - - - - -
05/06:00am 28.2 WSW 11 13 1007.6 - 0.0 - - - - - - -
05/05:30am 28.2 W 9 11 1007.7 - 0.0 - - - - - - -
05/05:00am 28.2 WNW 9 10 1007.5 - 0.0 - - - - - - -
05/04:30am 28.2 WNW 8 9 1007.2 - 0.0 - - - - - - -
05/04:00am 28.2 NW 8 9 1007.1 - 0.0 - - - - - - -
05/03:30am 28.0 NW 9 11 1007.1 - 0.0 - - - - - - -
05/03:00am 28.1 NNW 11 13 1007.5 - 0.0 - - - - - - -
05/02:30am 28.2 NW 8 10 1007.7 - 0.0 - - - - - - -
05/02:00am 28.3 WNW 7 9 1008.1 - 0.0 - - - - - - -
05/01:30am 28.3 WNW 9 10 1008.3 - 0.0 - - - - - - -
05/01:00am 28.4 WNW 9 10 1008.2 - 0.0 - - - - - - -
05/12:30am 28.5 WNW 8 9 1008.7 - 0.0 - - - - - - -
05/12:00am 28.5 WNW 8 9 1009.0 - 0.0 - - - - - - -
 
Date/Time
CST
Temp

°C
Wind Pressure Rain
since 9am
mm
Weather Cloud Vis
km
Sea
Height
m
Swell
Dir
 
Speed
knots
Gust
knots
hPa Trend Height
m
Period
s
Dir
04/11:30pm 28.6 NW 8 9 1009.4 - 0.0 - - - - - - -
04/11:00pm 28.6 NW 7 9 1009.6 - 0.0 - - - - - - -
04/10:30pm 28.7 WNW 7 8 1009.5 - 0.0 - - - - - - -
04/10:00pm 28.6 WNW 8 9 1009.3 - 0.0 - - - - - - -
04/09:30pm 28.6 WNW 8 9 1009.1 - 0.0 - - - - - - -
04/09:00pm 28.6 NW 6 7 1008.6 - 0.0 - - - - - - -
04/08:30pm 28.6 NW 7 8 1008.5 - 0.0 - - - - - - -
04/08:00pm 28.8 NW 7 8 1007.8 - 0.0 - - - - - - -
04/07:30pm 28.7 NW 7 8 1007.7 - 0.0 - - - - - - -
04/07:00pm 28.8 NW 7 8 1007.5 - 0.0 - - - - - - -
04/06:30pm 28.8 WNW 7 8 1007.3 - 0.0 - - - - - - -
04/06:00pm 28.8 NW 5 7 1007.3 - 0.0 - - - - - - -
04/05:30pm 28.9 W 8 10 1006.9 - 0.0 - - - - - - -
04/05:00pm 29.1 NW 7 8 1006.3 - 0.0 - - - - - - -
04/04:30pm 29.5 NW 6 7 1006.4 - 0.0 - - - - - - -
04/04:00pm 29.5 NW 6 7 1006.3 - 0.0 - - - - - - -
04/03:30pm 29.9 NW 5 6 1006.3 - 0.0 - - - - - - -
04/03:00pm 30.7 WNW 7 8 1006.4 - 0.0 - - - - - - -
04/02:30pm 29.9 WNW 7 8 1006.8 - 0.0 - - - - - - -
04/02:00pm 30.2 WNW 9 11 1007.2 - 0.0 - - - - - - -
04/01:30pm 29.0 W 11 14 1007.5 - 0.0 - - - - - - -
04/01:00pm 29.5 W 10 11 1007.9 - 0.0 - - - - - - -
04/12:30pm 29.5 SW 7 9 1008.2 - 0.0 - - - - - - -
04/12:00pm 29.5 SSW 6 7 1008.6 - 0.0 - - - - - - -
04/11:30am 29.8 SSW 8 11 1008.8 - 0.0 - - - - - - -
04/11:00am 30.0 WSW 4 6 1009.0 - 0.0 - - - - - - -
04/10:30am 29.7 W 5 6 1009.2 - 0.0 - - - - - - -
04/10:00am 29.4 WNW 7 9 1009.2 - 0.0 - - - - - - -
04/09:30am 29.2 SE 5 6 1009.0 - 0.0 - - - - - - -
04/09:00am 28.7 SW 6 7 1008.8 - 4.6 - - - - - - -
04/08:30am 28.8 WSW 7 8 1008.2 - 4.6 - - - - - - -
04/08:00am 27.9 W 4 6 1008.0 - 4.6 - - - - - - -
04/07:30am 27.5 SW 6 9 1007.6 - 4.6 - - - - - - -

Other Formats:

Comma delimited format used in spreadsheet applications
http://www.bom.gov.au/fwo/IDD60701/IDD60701.94135.axf

JavaScript Object Notation format (JSON) in row-major order
http://www.bom.gov.au/fwo/IDD60701/IDD60701.94135.json